createdAt,value
2023-01-03T00:02:09.131Z,7.28
2023-01-03T00:04:36.269Z,7.50
2023-01-03T00:07:03.317Z,7.34
2023-01-03T00:09:30.078Z,7.37
2023-01-03T00:12:15.353Z,7.39
2023-01-03T00:14:43.992Z,6.98
2023-01-03T00:17:12.468Z,7.48
2023-01-03T00:19:42.562Z,6.75
2023-01-03T00:22:11.886Z,7.67
2023-01-03T00:24:39.398Z,7.16
2023-01-03T00:27:06.737Z,7.88
2023-01-03T00:29:34.155Z,7.42
2023-01-03T00:32:01.076Z,8.02
2023-01-03T00:34:28.169Z,7.54
2023-01-03T00:36:55.205Z,7.29
2023-01-03T00:39:23.043Z,8.10
2023-01-03T00:41:50.516Z,7.21
2023-01-03T00:44:17.717Z,8.08
2023-01-03T00:46:44.921Z,7.62
2023-01-03T00:49:12.492Z,7.56
2023-01-03T00:51:41.453Z,7.34
2023-01-03T00:54:10.322Z,7.65
2023-01-03T00:56:39.476Z,7.58
2023-01-03T00:59:07.316Z,7.19
2023-01-03T01:01:46.623Z,7.81
2023-01-03T01:04:36.929Z,7.88
2023-01-03T01:07:04.998Z,7.94
2023-01-03T01:09:37.258Z,7.37
2023-01-03T01:12:07.187Z,7.52
2023-01-03T01:14:34.684Z,7.50
2023-01-03T01:17:04.392Z,7.89
2023-01-03T01:19:38.442Z,7.06
2023-01-03T01:22:05.883Z,7.25
2023-01-03T01:24:33.714Z,7.34
2023-01-03T01:27:01.153Z,7.88
2023-01-03T01:29:28.438Z,7.36
2023-01-03T01:31:55.444Z,7.59
2023-01-03T01:34:22.511Z,7.59
2023-01-03T01:36:49.758Z,7.30
2023-01-03T01:39:22.405Z,6.89
2023-01-03T01:42:15.072Z,7.26
2023-01-03T01:44:56.839Z,6.91
2023-01-03T01:47:45.318Z,6.99
2023-01-03T01:50:15.435Z,6.32
2023-01-03T01:52:48.591Z,7.22
2023-01-03T01:55:18.829Z,6.54
2023-01-03T01:57:46.636Z,6.63
2023-01-03T02:00:14.154Z,7.05
2023-01-03T02:02:41.090Z,6.71
2023-01-03T02:05:12.117Z,6.58
2023-01-03T02:07:39.924Z,6.82
2023-01-03T02:10:07.604Z,6.64
2023-01-03T02:13:11.719Z,7.17
2023-01-03T02:15:44.585Z,6.83
2023-01-03T02:18:24.731Z,7.33
2023-01-03T02:21:03.588Z,7.21
2023-01-03T02:23:39.243Z,7.23
2023-01-03T02:26:27.562Z,7.30
2023-01-03T02:29:16.842Z,7.24
2023-01-03T02:31:55.205Z,6.43
2023-01-03T02:34:25.010Z,7.15
2023-01-03T02:37:09.733Z,6.85
2023-01-03T02:39:48.889Z,7.09
2023-01-03T02:42:49.882Z,6.34
2023-01-03T02:45:38.320Z,7.27
2023-01-03T02:48:19.450Z,7.09
2023-01-03T02:50:52.448Z,7.13
2023-01-03T02:53:33.517Z,6.74
2023-01-03T02:56:06.938Z,6.49
2023-01-03T02:58:37.668Z,6.86
2023-01-03T03:01:08.802Z,6.72
2023-01-03T03:03:39.889Z,6.81
2023-01-03T03:06:29.923Z,7.16
2023-01-03T03:08:57.210Z,6.14
2023-01-03T03:11:46.558Z,7.16
2023-01-03T03:14:22.562Z,6.53
2023-01-03T03:16:51.850Z,7.21
2023-01-03T03:19:52.172Z,6.35
2023-01-03T03:22:53.399Z,7.13
2023-01-03T03:25:43.407Z,7.13
2023-01-03T03:28:32.047Z,6.53
2023-01-03T03:31:16.392Z,7.27
2023-01-03T03:33:54.441Z,7.07
2023-01-03T03:36:33.563Z,5.94
2023-01-03T03:39:01.039Z,6.86
2023-01-03T03:42:11.239Z,7.24
2023-01-03T03:45:02.341Z,7.28
2023-01-03T03:47:54.840Z,7.25
2023-01-03T03:50:28.046Z,6.89
2023-01-03T03:53:00.472Z,7.26
2023-01-03T03:56:00.804Z,6.80
2023-01-03T03:58:32.972Z,6.93
2023-01-03T04:01:01.908Z,7.26
2023-01-03T04:03:30.967Z,7.01
2023-01-03T04:06:10.760Z,7.25
2023-01-03T04:08:37.933Z,7.34
2023-01-03T04:11:07.836Z,7.12
2023-01-03T04:13:39.367Z,7.20
2023-01-03T04:16:07.220Z,7.15
2023-01-03T04:18:34.442Z,6.95
2023-01-03T04:21:01.441Z,7.65
2023-01-03T04:23:28.279Z,7.00
2023-01-03T04:25:55.318Z,7.36
2023-01-03T04:28:22.111Z,7.62
2023-01-03T04:30:49.157Z,7.02
2023-01-03T04:33:16.392Z,7.40
2023-01-03T04:35:43.481Z,6.74
2023-01-03T04:38:10.471Z,6.78
2023-01-03T04:40:38.896Z,6.89
2023-01-03T04:43:24.342Z,7.18
2023-01-03T04:45:52.157Z,7.11
2023-01-03T04:48:19.142Z,7.30
2023-01-03T04:51:04.326Z,7.34
2023-01-03T04:53:31.244Z,7.65
2023-01-03T04:55:58.158Z,7.29
2023-01-03T04:58:25.944Z,7.12
2023-01-03T05:00:53.080Z,7.02
2023-01-03T05:03:25.752Z,6.73
2023-01-03T05:05:59.759Z,7.25
2023-01-03T05:08:26.713Z,7.08
2023-01-03T05:10:53.882Z,7.32
2023-01-03T05:13:20.913Z,7.28
2023-01-03T05:15:48.314Z,7.53
2023-01-03T05:18:15.237Z,7.22
2023-01-03T05:21:01.035Z,7.25
2023-01-03T05:23:46.606Z,7.08
2023-01-03T05:26:16.605Z,6.56
2023-01-03T05:28:47.043Z,6.99
2023-01-03T05:31:14.430Z,6.44
2023-01-03T05:33:42.094Z,6.90
2023-01-03T05:36:10.369Z,6.39
2023-01-03T05:38:38.620Z,6.60
2023-01-03T05:41:06.361Z,7.10
2023-01-03T05:43:33.803Z,6.95
2023-01-03T05:46:00.803Z,6.17
2023-01-03T05:48:27.921Z,6.86
2023-01-03T05:50:58.190Z,5.87
2023-01-03T05:53:25.687Z,7.02
2023-01-03T05:55:52.789Z,6.91
2023-01-03T05:58:20.093Z,6.46
2023-01-03T06:00:47.962Z,5.54
2023-01-03T06:03:14.901Z,6.21
2023-01-03T06:05:47.883Z,7.04
2023-01-03T06:08:16.847Z,6.66
2023-01-03T06:10:43.783Z,5.91
2023-01-03T06:13:10.929Z,6.11
2023-01-03T06:15:37.810Z,6.12
2023-01-03T06:18:04.716Z,6.26
2023-01-03T06:20:31.759Z,5.57
2023-01-03T06:22:58.975Z,5.30
2023-01-03T06:25:26.308Z,6.35
2023-01-03T06:27:53.250Z,6.07
2023-01-03T06:30:21.109Z,6.04
2023-01-03T06:32:48.283Z,7.05
2023-01-03T06:35:15.354Z,7.15
2023-01-03T06:37:42.731Z,5.96
2023-01-03T06:40:10.223Z,6.69
2023-01-03T06:42:40.161Z,5.81
2023-01-03T06:45:26.004Z,6.21
2023-01-03T06:48:11.337Z,6.00
2023-01-03T06:51:03.148Z,6.26
2023-01-03T06:53:35.185Z,5.95
2023-01-03T06:56:02.978Z,6.22
2023-01-03T06:58:30.321Z,6.93
2023-01-03T07:00:59.340Z,7.21
2023-01-03T07:03:26.451Z,7.20
2023-01-03T07:05:53.363Z,6.62
2023-01-03T07:08:20.575Z,6.47
2023-01-03T07:10:47.516Z,6.15
2023-01-03T07:13:34.533Z,6.52
2023-01-03T07:16:01.421Z,6.60
2023-01-03T07:18:28.367Z,5.95
2023-01-03T07:20:55.243Z,6.13
2023-01-03T07:23:22.443Z,5.91
2023-01-03T07:25:49.529Z,6.31
2023-01-03T07:28:17.760Z,6.17
2023-01-03T07:30:46.224Z,6.08
2023-01-03T07:33:15.414Z,5.47
2023-01-03T07:35:42.717Z,6.08
2023-01-03T07:38:10.930Z,5.39
2023-01-03T07:40:37.965Z,6.57
2023-01-03T07:43:23.534Z,6.33
2023-01-03T07:45:50.556Z,6.30
2023-01-03T07:48:17.521Z,5.87
2023-01-03T07:50:44.635Z,5.65
2023-01-03T07:53:19.598Z,5.86
2023-01-03T07:55:46.512Z,6.16
2023-01-03T07:58:14.053Z,6.19
2023-01-03T08:00:41.567Z,6.09
2023-01-03T08:03:11.482Z,5.19
2023-01-03T08:05:38.900Z,6.79
2023-01-03T08:08:06.508Z,6.08
2023-01-03T08:10:51.883Z,6.08
2023-01-03T08:13:19.340Z,6.34
2023-01-03T08:15:51.156Z,6.34
2023-01-03T08:18:20.973Z,5.23
2023-01-03T08:20:48.486Z,5.33
2023-01-03T08:23:16.000Z,6.07
2023-01-03T08:25:42.949Z,5.97
2023-01-03T08:28:11.030Z,6.75
2023-01-03T08:30:44.613Z,6.05
2023-01-03T08:33:15.235Z,5.84
2023-01-03T08:35:46.729Z,5.89
2023-01-03T08:38:19.159Z,5.43
2023-01-03T08:40:47.158Z,5.56
2023-01-03T08:43:16.002Z,7.04
2023-01-03T08:45:43.216Z,6.70
2023-01-03T08:48:11.503Z,6.84
2023-01-03T08:50:38.884Z,7.00
2023-01-03T08:53:06.208Z,6.45
2023-01-03T08:55:34.128Z,7.07
2023-01-03T08:58:01.396Z,6.84
2023-01-03T09:00:29.257Z,6.84
2023-01-03T09:03:00.554Z,6.67
2023-01-03T09:05:28.881Z,7.10
2023-01-03T09:07:56.574Z,6.91
2023-01-03T09:10:23.661Z,6.23
2023-01-03T09:12:50.957Z,5.77
2023-01-03T09:15:18.125Z,6.85
2023-01-03T09:17:48.117Z,6.49
2023-01-03T09:20:17.038Z,6.23
2023-01-03T09:22:44.089Z,6.82
2023-01-03T09:25:11.243Z,6.34
2023-01-03T09:27:38.233Z,6.72
2023-01-03T09:30:05.719Z,6.26
2023-01-03T09:32:32.637Z,7.37
2023-01-03T09:34:59.804Z,7.80
2023-01-03T09:37:26.944Z,8.09
2023-01-03T09:39:53.871Z,7.54
2023-01-03T09:42:41.907Z,8.19
2023-01-03T09:45:14.971Z,8.65
2023-01-03T09:47:43.216Z,8.13
2023-01-03T09:50:35.132Z,9.17
2023-01-03T09:53:25.634Z,9.26
2023-01-03T09:56:19.242Z,9.49
2023-01-03T09:59:16.121Z,9.72
2023-01-03T10:02:17.874Z,9.43
2023-01-03T10:05:10.558Z,10.06
2023-01-03T10:07:49.640Z,10.17
2023-01-03T10:10:42.564Z,9.98
2023-01-03T10:13:36.513Z,10.36
2023-01-03T10:16:22.014Z,10.50
2023-01-03T10:18:59.683Z,10.52
2023-01-03T10:21:52.397Z,10.20
2023-01-03T10:24:31.242Z,10.07
2023-01-03T10:27:09.057Z,9.98
2023-01-03T10:29:36.249Z,9.62
2023-01-03T10:32:26.558Z,10.54
2023-01-03T10:35:15.189Z,10.92
2023-01-03T10:37:43.285Z,10.83
2023-01-03T10:40:10.876Z,10.98
2023-01-03T10:42:40.567Z,10.59
2023-01-03T10:45:14.692Z,10.42
2023-01-03T10:47:45.257Z,10.87
2023-01-03T10:50:24.154Z,10.36
2023-01-03T10:52:59.683Z,9.90
2023-01-03T10:55:27.969Z,9.25
2023-01-03T10:58:14.274Z,10.41
2023-01-03T11:00:43.368Z,10.15
2023-01-03T11:03:17.471Z,10.49
2023-01-03T11:05:50.761Z,8.85
2023-01-03T11:08:42.934Z,10.49
2023-01-03T11:11:28.157Z,9.64
2023-01-03T11:14:11.520Z,9.33
2023-01-03T11:16:38.649Z,9.93
2023-01-03T11:19:07.186Z,9.71
2023-01-03T11:24:35.480Z,9.99
2023-01-03T11:27:31.682Z,9.52
2023-01-03T11:30:22.999Z,9.99
2023-01-03T11:33:38.854Z,9.54
2023-01-03T11:36:41.349Z,9.23
2023-01-03T11:39:14.990Z,10.14
2023-01-03T11:42:04.916Z,10.15
2023-01-03T11:45:09.752Z,9.76
2023-01-03T11:48:01.604Z,9.60
2023-01-03T11:50:35.443Z,9.44
2023-01-03T11:53:04.964Z,9.82
2023-01-03T11:55:46.957Z,10.44
2023-01-03T11:58:33.298Z,10.46
2023-01-03T12:01:13.950Z,9.91
2023-01-03T12:04:02.867Z,10.25
2023-01-03T12:07:37.040Z,10.33
2023-01-03T12:09:56.234Z,10.42
2023-01-03T12:12:59.677Z,10.29
2023-01-03T12:15:48.097Z,10.13
2023-01-03T12:18:46.643Z,10.32
2023-01-03T12:21:31.640Z,10.23
2023-01-03T12:24:06.445Z,9.88
2023-01-03T12:26:38.132Z,8.64
2023-01-03T12:29:21.013Z,9.99
2023-01-03T12:31:54.208Z,9.07
2023-01-03T12:34:43.722Z,10.07
2023-01-03T12:37:20.430Z,10.01
2023-01-03T12:39:50.204Z,9.99
2023-01-03T12:42:33.275Z,9.28
2023-01-03T12:45:12.002Z,10.15
2023-01-03T12:47:43.312Z,10.12
2023-01-03T12:50:20.320Z,9.90
2023-01-03T12:53:07.193Z,10.07
2023-01-03T12:56:01.432Z,10.38
2023-01-03T12:58:39.827Z,10.13
2023-01-03T13:01:45.692Z,10.28
2023-01-03T13:04:25.315Z,9.78
2023-01-03T13:07:12.247Z,9.78
2023-01-03T13:09:43.569Z,9.97
2023-01-03T13:19:32.212Z,10.37
2023-01-03T13:22:19.015Z,9.79
2023-01-03T13:24:48.187Z,10.21
2023-01-03T13:27:20.735Z,10.14
2023-01-03T13:29:50.716Z,10.38
2023-01-03T13:32:20.532Z,10.21
2023-01-03T13:35:16.630Z,10.00
2023-01-03T13:37:51.454Z,9.62
2023-01-03T13:40:52.222Z,9.97
2023-01-03T13:43:19.308Z,9.87
2023-01-03T13:45:51.652Z,10.19
2023-01-03T13:48:29.809Z,10.27
2023-01-03T13:54:13.951Z,10.19
2023-01-03T13:56:44.165Z,10.24
2023-01-03T13:59:34.935Z,10.23
2023-01-03T14:02:11.086Z,10.13
2023-01-03T14:04:56.860Z,10.26
2023-01-03T14:07:46.387Z,10.16
2023-01-03T14:10:19.211Z,10.53
2023-01-03T14:13:07.464Z,10.50
2023-01-03T14:15:35.299Z,10.06
2023-01-03T14:18:24.457Z,10.35
2023-01-03T14:20:54.011Z,9.87
2023-01-03T14:23:58.505Z,10.12
2023-01-03T14:26:17.857Z,10.21
2023-01-03T14:28:50.189Z,10.28
2023-01-03T14:31:27.045Z,9.95
2023-01-03T14:34:02.029Z,10.30
2023-01-03T14:36:29.404Z,9.49
2023-01-03T14:38:58.979Z,10.19
2023-01-03T14:41:38.872Z,10.13
2023-01-03T14:44:14.646Z,9.91
2023-01-03T14:46:55.880Z,10.21
2023-01-03T14:49:38.243Z,10.06
2023-01-03T14:52:19.310Z,9.80
2023-01-03T14:54:50.857Z,9.90
2023-01-03T14:57:20.653Z,9.73
2023-01-03T14:59:49.452Z,9.78
2023-01-03T15:02:18.278Z,8.97
2023-01-03T15:04:53.973Z,9.15
2023-01-03T15:07:47.294Z,9.42
2023-01-03T15:10:21.784Z,9.77
2023-01-03T15:12:54.488Z,9.63
2023-01-03T15:15:34.024Z,9.79
2023-01-03T15:18:04.772Z,9.42
2023-01-03T15:20:36.984Z,9.70
2023-01-03T15:23:04.774Z,9.61
2023-01-03T15:25:42.307Z,9.64
2023-01-03T15:28:26.091Z,9.41
2023-01-03T15:30:55.561Z,9.05
2023-01-03T15:33:33.480Z,9.59
2023-01-03T15:36:05.702Z,8.97
2023-01-03T15:38:38.674Z,9.33
2023-01-03T15:42:12.394Z,9.76
2023-01-03T15:44:38.433Z,9.55
2023-01-03T15:47:08.841Z,9.74
2023-01-03T15:49:44.750Z,9.41
2023-01-03T15:52:15.660Z,8.83
2023-01-03T15:54:44.068Z,9.00
2023-01-03T15:57:20.741Z,9.48
2023-01-03T15:59:54.127Z,8.95
2023-01-03T16:02:21.975Z,9.33
2023-01-03T16:04:49.668Z,9.25
2023-01-03T16:07:16.504Z,9.23
2023-01-03T16:09:43.496Z,9.27
2023-01-03T16:12:16.361Z,9.18
2023-01-03T16:14:45.409Z,8.93
2023-01-03T16:17:24.323Z,9.40
2023-01-03T16:19:52.097Z,8.58
2023-01-03T16:22:36.312Z,8.65
2023-01-03T16:25:05.623Z,8.80
2023-01-03T16:27:32.730Z,8.69
2023-01-03T16:29:59.602Z,8.84
2023-01-03T16:32:29.016Z,8.58
2023-01-03T16:35:14.769Z,8.81
2023-01-03T16:37:42.121Z,8.93
2023-01-03T16:40:17.497Z,8.83
2023-01-03T16:42:44.326Z,8.49
2023-01-03T16:45:11.574Z,7.77
2023-01-03T16:47:39.441Z,8.81
2023-01-03T16:50:12.778Z,8.35
2023-01-03T16:52:43.566Z,8.32
2023-01-03T16:55:19.536Z,7.69
2023-01-03T16:57:51.934Z,8.05
2023-01-03T17:00:26.528Z,8.42
2023-01-03T17:02:56.183Z,8.03
2023-01-03T17:05:23.753Z,7.71
2023-01-03T17:07:56.889Z,7.73
2023-01-03T17:10:35.145Z,7.76
2023-01-03T17:13:08.550Z,8.08
2023-01-03T17:15:39.113Z,7.78
2023-01-03T17:18:05.991Z,7.53
2023-01-03T17:20:32.769Z,7.94
2023-01-03T17:23:00.630Z,7.69
2023-01-03T17:25:27.817Z,7.71
2023-01-03T17:27:59.451Z,7.72
2023-01-03T17:30:28.969Z,6.78
2023-01-03T17:32:55.903Z,7.57
2023-01-03T17:35:23.334Z,7.36
2023-01-03T17:40:38.750Z,6.72
2023-01-03T17:43:05.735Z,7.11
2023-01-03T17:45:51.667Z,7.12
2023-01-03T17:48:37.264Z,7.08
2023-01-03T17:51:04.492Z,7.07
2023-01-03T17:53:31.769Z,7.37
2023-01-03T17:55:58.694Z,6.49
2023-01-03T17:58:32.368Z,7.32
2023-01-03T18:00:59.907Z,6.36
2023-01-03T18:03:27.240Z,7.08
2023-01-03T18:05:54.684Z,7.01
2023-01-03T18:08:24.537Z,7.17
2023-01-03T18:10:54.230Z,6.95
2023-01-03T18:13:41.412Z,7.22
2023-01-03T18:16:14.544Z,6.85
2023-01-03T18:18:41.576Z,6.52
2023-01-03T18:21:22.648Z,6.97
2023-01-03T18:23:57.723Z,6.67
2023-01-03T18:26:30.346Z,6.64
2023-01-03T18:28:57.407Z,6.82
2023-01-03T18:31:24.695Z,6.84
2023-01-03T18:33:51.700Z,6.04
2023-01-03T18:36:24.568Z,5.89
2023-01-03T18:38:52.814Z,6.14
2023-01-03T18:41:31.096Z,5.48
2023-01-03T18:43:58.206Z,6.43
2023-01-03T18:46:28.454Z,5.99
2023-01-03T18:48:55.578Z,6.36
2023-01-03T18:51:28.367Z,5.51
2023-01-03T18:53:58.687Z,6.13
2023-01-03T18:56:28.696Z,6.15
2023-01-03T18:59:02.172Z,5.42
2023-01-03T19:01:30.311Z,5.53
2023-01-03T19:03:57.846Z,5.58
2023-01-03T19:06:30.781Z,5.76
2023-01-03T19:09:05.336Z,6.11
2023-01-03T19:11:38.248Z,5.44
2023-01-03T19:14:05.210Z,5.32
2023-01-03T19:16:36.080Z,6.00
2023-01-03T19:19:04.172Z,5.58
2023-01-03T19:21:33.977Z,5.62
2023-01-03T19:24:23.139Z,6.15
2023-01-03T19:27:11.266Z,5.64
2023-01-03T19:29:39.177Z,5.59
2023-01-03T19:32:14.576Z,5.41
2023-01-03T19:34:41.665Z,5.31
2023-01-03T19:37:12.526Z,4.69
2023-01-03T19:39:40.091Z,4.94
2023-01-03T19:42:32.861Z,5.69
2023-01-03T19:45:01.295Z,4.83
2023-01-03T19:47:28.630Z,5.36
2023-01-03T19:50:34.250Z,5.57
2023-01-03T19:53:02.008Z,5.10
2023-01-03T19:55:32.609Z,5.30
2023-01-03T19:58:11.939Z,5.48
2023-01-03T20:00:38.871Z,5.48
2023-01-03T20:03:11.947Z,5.42
2023-01-03T20:05:39.098Z,4.41
2023-01-03T20:08:12.079Z,4.47
2023-01-03T20:10:43.510Z,5.44
2023-01-03T20:13:17.452Z,5.10
2023-01-03T20:15:45.903Z,4.15
2023-01-03T20:18:31.381Z,5.21
2023-01-03T20:21:04.731Z,5.26
2023-01-03T20:23:36.462Z,5.12
2023-01-03T20:26:04.410Z,5.30
2023-01-03T20:28:31.367Z,5.16
2023-01-03T20:31:00.000Z,5.18
2023-01-03T20:33:28.503Z,4.93
2023-01-03T20:36:16.096Z,5.23
2023-01-03T20:38:49.161Z,4.90
2023-01-03T20:41:18.210Z,4.30
2023-01-03T20:43:46.102Z,5.26
2023-01-03T20:46:21.456Z,5.38
2023-01-03T20:48:56.695Z,5.12
2023-01-03T20:51:24.771Z,4.71
2023-01-03T20:53:54.791Z,5.09
2023-01-03T20:56:22.938Z,4.90
2023-01-03T20:58:49.749Z,4.69
2023-01-03T21:01:16.684Z,4.29
2023-01-03T21:03:43.678Z,4.94
2023-01-03T21:06:18.018Z,4.73
2023-01-03T21:08:57.974Z,4.65
2023-01-03T21:11:41.654Z,4.58
2023-01-03T21:14:08.821Z,4.47
2023-01-03T21:16:42.060Z,4.62
2023-01-03T21:19:23.568Z,4.67
2023-01-03T21:21:53.138Z,4.71
2023-01-03T21:24:22.134Z,4.69
2023-01-03T21:26:49.073Z,4.38
2023-01-03T21:29:16.137Z,4.38
2023-01-03T21:31:43.778Z,4.36
2023-01-03T21:34:18.090Z,4.45
2023-01-03T21:36:45.014Z,4.16
2023-01-03T21:39:11.867Z,4.24
2023-01-03T21:42:00.093Z,4.01
2023-01-03T21:44:27.032Z,4.52
2023-01-03T21:46:53.915Z,4.31
2023-01-03T21:49:20.814Z,4.37
2023-01-03T21:51:47.644Z,4.18
2023-01-03T21:54:14.417Z,4.27
2023-01-03T21:56:47.352Z,3.46
2023-01-03T21:59:15.509Z,3.91
2023-01-03T22:02:02.638Z,3.74
2023-01-03T22:04:30.010Z,3.68
2023-01-03T22:07:01.111Z,3.69
2023-01-03T22:09:48.171Z,3.95
2023-01-03T22:12:16.168Z,3.33
2023-01-03T22:14:46.839Z,4.10
2023-01-03T22:17:14.367Z,3.38
2023-01-03T22:19:41.126Z,3.59
2023-01-03T22:22:07.960Z,4.29
2023-01-03T22:24:34.686Z,4.22
2023-01-03T22:27:01.446Z,4.02
2023-01-03T22:29:28.253Z,4.14
2023-01-03T22:31:55.105Z,4.17
2023-01-03T22:34:22.163Z,4.25
2023-01-03T22:36:48.895Z,4.43
2023-01-03T22:39:15.612Z,4.22
2023-01-03T22:41:42.359Z,4.35
2023-01-03T22:44:10.343Z,4.32
2023-01-03T22:46:37.127Z,4.41
2023-01-03T22:49:04.066Z,4.51
2023-01-03T22:51:30.826Z,4.12
2023-01-03T22:53:58.088Z,4.69
2023-01-03T22:56:24.949Z,4.70
2023-01-03T22:58:51.667Z,4.82
2023-01-03T23:01:27.480Z,4.59
2023-01-03T23:03:57.038Z,4.33
2023-01-03T23:06:24.495Z,4.55
2023-01-03T23:08:54.336Z,4.65
2023-01-03T23:11:41.601Z,4.26
2023-01-03T23:14:11.171Z,4.75
2023-01-03T23:16:38.669Z,4.49
2023-01-03T23:19:08.207Z,4.95
2023-01-03T23:21:35.783Z,4.57
2023-01-03T23:24:03.244Z,4.73
2023-01-03T23:26:30.090Z,4.89
2023-01-03T23:28:58.604Z,5.00
2023-01-03T23:31:29.149Z,4.22
2023-01-03T23:33:59.381Z,4.29
2023-01-03T23:36:27.069Z,4.19
2023-01-03T23:38:55.065Z,4.59
2023-01-03T23:41:22.952Z,3.90
2023-01-03T23:43:50.179Z,4.36
2023-01-03T23:46:19.613Z,4.04
2023-01-03T23:48:47.144Z,4.07
2023-01-03T23:51:14.904Z,3.42
2023-01-03T23:53:43.240Z,3.77
2023-01-03T23:56:14.880Z,4.29
2023-01-03T23:58:41.727Z,4.36
